sensor_id;sensor_type;location;lat;lon;timestamp;P1;durP1;ratioP1;P2;durP2;ratioP2
66143;SDS011;52947;50.842;6.084;2023-02-13T00:00:56;23.10;;;11.88;;
66143;SDS011;52947;50.842;6.084;2023-02-13T00:03:24;21.93;;;10.70;;
66143;SDS011;52947;50.842;6.084;2023-02-13T00:05:54;24.63;;;12.38;;
66143;SDS011;52947;50.842;6.084;2023-02-13T00:10:50;23.23;;;10.55;;
66143;SDS011;52947;50.842;6.084;2023-02-13T00:13:18;22.15;;;10.77;;
66143;SDS011;52947;50.842;6.084;2023-02-13T00:15:53;19.92;;;9.93;;
66143;SDS011;52947;50.842;6.084;2023-02-13T00:18:22;21.88;;;9.95;;
66143;SDS011;52947;50.842;6.084;2023-02-13T00:20:59;20.52;;;10.40;;
66143;SDS011;52947;50.842;6.084;2023-02-13T00:23:28;25.83;;;12.00;;
66143;SDS011;52947;50.842;6.084;2023-02-13T00:28:24;20.67;;;10.25;;
66143;SDS011;52947;50.842;6.084;2023-02-13T00:30:53;24.43;;;11.83;;
66143;SDS011;52947;50.842;6.084;2023-02-13T00:33:22;22.45;;;10.18;;
66143;SDS011;52947;50.842;6.084;2023-02-13T00:35:50;20.98;;;10.18;;
66143;SDS011;52947;50.842;6.084;2023-02-13T00:38:20;22.60;;;10.90;;
66143;SDS011;52947;50.842;6.084;2023-02-13T00:40:48;19.95;;;10.68;;
66143;SDS011;52947;50.842;6.084;2023-02-13T00:43:16;21.38;;;10.48;;
66143;SDS011;52947;50.842;6.084;2023-02-13T00:45:45;20.95;;;10.30;;
66143;SDS011;52947;50.842;6.084;2023-02-13T00:48:13;24.15;;;11.68;;
66143;SDS011;52947;50.842;6.084;2023-02-13T00:50:41;25.10;;;11.68;;
66143;SDS011;52947;50.842;6.084;2023-02-13T00:53:09;24.92;;;11.18;;
66143;SDS011;52947;50.842;6.084;2023-02-13T00:55:39;21.50;;;10.68;;
66143;SDS011;52947;50.842;6.084;2023-02-13T00:58:07;22.58;;;11.70;;
66143;SDS011;52947;50.842;6.084;2023-02-13T01:00:35;21.65;;;10.85;;
66143;SDS011;52947;50.842;6.084;2023-02-13T01:03:04;23.20;;;11.43;;
66143;SDS011;52947;50.842;6.084;2023-02-13T01:05:32;22.88;;;10.80;;
66143;SDS011;52947;50.842;6.084;2023-02-13T01:08:00;22.80;;;11.30;;
66143;SDS011;52947;50.842;6.084;2023-02-13T01:10:28;20.15;;;10.40;;
66143;SDS011;52947;50.842;6.084;2023-02-13T01:12:57;24.40;;;11.10;;
66143;SDS011;52947;50.842;6.084;2023-02-13T01:15:25;22.30;;;10.77;;
66143;SDS011;52947;50.842;6.084;2023-02-13T01:17:53;21.52;;;11.32;;
66143;SDS011;52947;50.842;6.084;2023-02-13T01:20:24;25.33;;;10.68;;
66143;SDS011;52947;50.842;6.084;2023-02-13T01:22:52;22.95;;;11.32;;
66143;SDS011;52947;50.842;6.084;2023-02-13T01:25:21;27.70;;;11.90;;
66143;SDS011;52947;50.842;6.084;2023-02-13T01:27:49;22.58;;;11.90;;
66143;SDS011;52947;50.842;6.084;2023-02-13T01:30:19;24.10;;;11.48;;
66143;SDS011;52947;50.842;6.084;2023-02-13T01:32:47;26.30;;;11.40;;
66143;SDS011;52947;50.842;6.084;2023-02-13T01:35:15;23.55;;;10.60;;
66143;SDS011;52947;50.842;6.084;2023-02-13T01:37:43;19.48;;;9.93;;
66143;SDS011;52947;50.842;6.084;2023-02-13T01:40:11;21.27;;;10.15;;
66143;SDS011;52947;50.842;6.084;2023-02-13T01:42:40;22.52;;;10.50;;
66143;SDS011;52947;50.842;6.084;2023-02-13T01:45:17;21.88;;;10.77;;
66143;SDS011;52947;50.842;6.084;2023-02-13T01:47:50;20.38;;;9.55;;
66143;SDS011;52947;50.842;6.084;2023-02-13T01:50:23;20.27;;;10.07;;
66143;SDS011;52947;50.842;6.084;2023-02-13T01:52:56;18.63;;;9.90;;
66143;SDS011;52947;50.842;6.084;2023-02-13T01:55:29;20.77;;;10.07;;
66143;SDS011;52947;50.842;6.084;2023-02-13T01:58:00;20.88;;;10.13;;
66143;SDS011;52947;50.842;6.084;2023-02-13T02:00:33;21.75;;;10.48;;
66143;SDS011;52947;50.842;6.084;2023-02-13T02:03:05;18.17;;;9.20;;
66143;SDS011;52947;50.842;6.084;2023-02-13T02:05:36;20.73;;;8.73;;
66143;SDS011;52947;50.842;6.084;2023-02-13T02:08:07;20.08;;;9.55;;
66143;SDS011;52947;50.842;6.084;2023-02-13T02:10:37;18.00;;;8.68;;
66143;SDS011;52947;50.842;6.084;2023-02-13T02:13:07;22.48;;;9.30;;
66143;SDS011;52947;50.842;6.084;2023-02-13T02:15:40;16.67;;;8.60;;
66143;SDS011;52947;50.842;6.084;2023-02-13T02:18:12;17.10;;;8.73;;
66143;SDS011;52947;50.842;6.084;2023-02-13T02:20:52;19.50;;;9.73;;
66143;SDS011;52947;50.842;6.084;2023-02-13T02:23:51;22.60;;;9.65;;
66143;SDS011;52947;50.842;6.084;2023-02-13T02:26:44;21.58;;;10.25;;
66143;SDS011;52947;50.842;6.084;2023-02-13T02:29:34;17.08;;;9.05;;
66143;SDS011;52947;50.842;6.084;2023-02-13T02:32:35;21.23;;;9.80;;
66143;SDS011;52947;50.842;6.084;2023-02-13T02:35:24;18.85;;;8.80;;
66143;SDS011;52947;50.842;6.084;2023-02-13T02:38:05;16.08;;;8.45;;
66143;SDS011;52947;50.842;6.084;2023-02-13T02:40:45;21.75;;;8.90;;
66143;SDS011;52947;50.842;6.084;2023-02-13T02:43:27;20.25;;;9.65;;
66143;SDS011;52947;50.842;6.084;2023-02-13T02:46:07;21.08;;;9.68;;
66143;SDS011;52947;50.842;6.084;2023-02-13T02:48:42;20.15;;;9.35;;
66143;SDS011;52947;50.842;6.084;2023-02-13T02:51:37;20.80;;;9.23;;
66143;SDS011;52947;50.842;6.084;2023-02-13T02:54:12;19.73;;;9.27;;
66143;SDS011;52947;50.842;6.084;2023-02-13T02:57:06;20.52;;;8.55;;
66143;SDS011;52947;50.842;6.084;2023-02-13T02:59:38;19.58;;;9.25;;
66143;SDS011;52947;50.842;6.084;2023-02-13T03:02:25;17.63;;;8.60;;
66143;SDS011;52947;50.842;6.084;2023-02-13T03:05:23;18.10;;;8.77;;
66143;SDS011;52947;50.842;6.084;2023-02-13T03:08:13;18.10;;;9.80;;
66143;SDS011;52947;50.842;6.084;2023-02-13T03:11:01;20.05;;;9.73;;
66143;SDS011;52947;50.842;6.084;2023-02-13T03:13:47;21.50;;;9.15;;
66143;SDS011;52947;50.842;6.084;2023-02-13T03:16:17;20.30;;;9.52;;
66143;SDS011;52947;50.842;6.084;2023-02-13T03:22:01;22.77;;;10.23;;
66143;SDS011;52947;50.842;6.084;2023-02-13T03:24:50;15.43;;;9.75;;
66143;SDS011;52947;50.842;6.084;2023-02-13T03:27:30;20.45;;;10.27;;
66143;SDS011;52947;50.842;6.084;2023-02-13T03:30:27;16.70;;;8.32;;
66143;SDS011;52947;50.842;6.084;2023-02-13T03:33:05;20.75;;;9.57;;
66143;SDS011;52947;50.842;6.084;2023-02-13T03:35:42;15.52;;;9.18;;
66143;SDS011;52947;50.842;6.084;2023-02-13T03:38:37;19.90;;;9.43;;
66143;SDS011;52947;50.842;6.084;2023-02-13T03:41:12;21.65;;;9.02;;
66143;SDS011;52947;50.842;6.084;2023-02-13T03:43:51;21.25;;;9.52;;
66143;SDS011;52947;50.842;6.084;2023-02-13T03:46:25;19.38;;;9.27;;
66143;SDS011;52947;50.842;6.084;2023-02-13T03:48:57;22.20;;;9.65;;
66143;SDS011;52947;50.842;6.084;2023-02-13T03:51:45;18.55;;;8.70;;
66143;SDS011;52947;50.842;6.084;2023-02-13T03:54:19;18.13;;;9.40;;
66143;SDS011;52947;50.842;6.084;2023-02-13T03:57:08;19.52;;;9.48;;
66143;SDS011;52947;50.842;6.084;2023-02-13T03:59:54;16.48;;;8.75;;
66143;SDS011;52947;50.842;6.084;2023-02-13T04:02:24;16.98;;;9.32;;
66143;SDS011;52947;50.842;6.084;2023-02-13T04:04:58;20.17;;;8.80;;
66143;SDS011;52947;50.842;6.084;2023-02-13T04:07:33;18.08;;;9.05;;
66143;SDS011;52947;50.842;6.084;2023-02-13T04:10:03;16.58;;;8.85;;
66143;SDS011;52947;50.842;6.084;2023-02-13T04:12:36;16.33;;;8.20;;
66143;SDS011;52947;50.842;6.084;2023-02-13T04:15:11;18.40;;;9.35;;
66143;SDS011;52947;50.842;6.084;2023-02-13T04:17:42;17.67;;;8.52;;
66143;SDS011;52947;50.842;6.084;2023-02-13T04:20:13;17.98;;;8.77;;
66143;SDS011;52947;50.842;6.084;2023-02-13T04:22:41;17.27;;;9.13;;
66143;SDS011;52947;50.842;6.084;2023-02-13T04:25:11;19.20;;;9.85;;
66143;SDS011;52947;50.842;6.084;2023-02-13T04:27:41;20.95;;;9.90;;
66143;SDS011;52947;50.842;6.084;2023-02-13T04:30:09;20.02;;;8.93;;
66143;SDS011;52947;50.842;6.084;2023-02-13T04:32:38;17.85;;;9.70;;
66143;SDS011;52947;50.842;6.084;2023-02-13T04:35:06;15.63;;;8.73;;
66143;SDS011;52947;50.842;6.084;2023-02-13T04:37:36;17.35;;;8.73;;
66143;SDS011;52947;50.842;6.084;2023-02-13T04:40:05;18.45;;;9.23;;
66143;SDS011;52947;50.842;6.084;2023-02-13T04:42:34;20.08;;;9.93;;
66143;SDS011;52947;50.842;6.084;2023-02-13T04:45:03;16.63;;;8.73;;
66143;SDS011;52947;50.842;6.084;2023-02-13T04:47:31;18.10;;;8.90;;
66143;SDS011;52947;50.842;6.084;2023-02-13T04:49:59;18.15;;;8.07;;
66143;SDS011;52947;50.842;6.084;2023-02-13T04:52:27;15.10;;;7.65;;
66143;SDS011;52947;50.842;6.084;2023-02-13T04:54:54;17.67;;;8.43;;
66143;SDS011;52947;50.842;6.084;2023-02-13T04:57:22;17.48;;;7.82;;
66143;SDS011;52947;50.842;6.084;2023-02-13T04:59:51;13.65;;;7.68;;
66143;SDS011;52947;50.842;6.084;2023-02-13T05:02:19;15.07;;;7.55;;
66143;SDS011;52947;50.842;6.084;2023-02-13T05:04:47;16.20;;;7.85;;
66143;SDS011;52947;50.842;6.084;2023-02-13T05:07:15;15.75;;;7.90;;
66143;SDS011;52947;50.842;6.084;2023-02-13T05:09:43;13.98;;;7.50;;
66143;SDS011;52947;50.842;6.084;2023-02-13T05:12:11;14.13;;;7.75;;
66143;SDS011;52947;50.842;6.084;2023-02-13T05:14:39;14.93;;;6.78;;
66143;SDS011;52947;50.842;6.084;2023-02-13T05:17:08;15.07;;;7.38;;
66143;SDS011;52947;50.842;6.084;2023-02-13T05:19:36;18.92;;;8.20;;
66143;SDS011;52947;50.842;6.084;2023-02-13T05:22:04;11.43;;;6.20;;
66143;SDS011;52947;50.842;6.084;2023-02-13T05:24:49;15.82;;;8.65;;
66143;SDS011;52947;50.842;6.084;2023-02-13T05:27:17;15.50;;;8.02;;
66143;SDS011;52947;50.842;6.084;2023-02-13T05:29:44;13.73;;;7.45;;
66143;SDS011;52947;50.842;6.084;2023-02-13T05:32:14;16.58;;;7.90;;
66143;SDS011;52947;50.842;6.084;2023-02-13T05:37:10;14.00;;;7.60;;
66143;SDS011;52947;50.842;6.084;2023-02-13T05:39:38;14.48;;;7.38;;
66143;SDS011;52947;50.842;6.084;2023-02-13T05:42:06;15.55;;;7.88;;
66143;SDS011;52947;50.842;6.084;2023-02-13T05:44:34;14.38;;;7.35;;
66143;SDS011;52947;50.842;6.084;2023-02-13T05:47:02;16.95;;;8.32;;
66143;SDS011;52947;50.842;6.084;2023-02-13T05:49:33;15.43;;;7.45;;
66143;SDS011;52947;50.842;6.084;2023-02-13T05:52:00;15.02;;;7.63;;
66143;SDS011;52947;50.842;6.084;2023-02-13T05:54:28;17.08;;;8.40;;
66143;SDS011;52947;50.842;6.084;2023-02-13T05:56:56;13.95;;;7.70;;
66143;SDS011;52947;50.842;6.084;2023-02-13T05:59:24;18.40;;;8.35;;
66143;SDS011;52947;50.842;6.084;2023-02-13T06:01:52;12.68;;;7.15;;
66143;SDS011;52947;50.842;6.084;2023-02-13T06:04:20;14.82;;;7.10;;
66143;SDS011;52947;50.842;6.084;2023-02-13T06:06:49;13.07;;;7.32;;
66143;SDS011;52947;50.842;6.084;2023-02-13T06:09:17;15.73;;;7.28;;
66143;SDS011;52947;50.842;6.084;2023-02-13T06:11:44;13.38;;;7.00;;
66143;SDS011;52947;50.842;6.084;2023-02-13T06:14:12;13.02;;;6.68;;
66143;SDS011;52947;50.842;6.084;2023-02-13T06:16:40;11.80;;;6.78;;
66143;SDS011;52947;50.842;6.084;2023-02-13T06:19:08;13.07;;;6.90;;
66143;SDS011;52947;50.842;6.084;2023-02-13T06:21:36;12.55;;;6.10;;
66143;SDS011;52947;50.842;6.084;2023-02-13T06:24:05;15.38;;;6.90;;
66143;SDS011;52947;50.842;6.084;2023-02-13T06:26:34;14.02;;;7.35;;
66143;SDS011;52947;50.842;6.084;2023-02-13T06:29:02;18.20;;;8.05;;
66143;SDS011;52947;50.842;6.084;2023-02-13T06:31:32;13.32;;;7.47;;
66143;SDS011;52947;50.842;6.084;2023-02-13T06:34:00;14.55;;;7.18;;
66143;SDS011;52947;50.842;6.084;2023-02-13T06:36:27;13.85;;;6.88;;
66143;SDS011;52947;50.842;6.084;2023-02-13T06:38:55;12.05;;;6.63;;
66143;SDS011;52947;50.842;6.084;2023-02-13T06:41:25;12.93;;;6.10;;
66143;SDS011;52947;50.842;6.084;2023-02-13T06:43:53;16.10;;;7.03;;
66143;SDS011;52947;50.842;6.084;2023-02-13T06:46:20;13.82;;;6.50;;
66143;SDS011;52947;50.842;6.084;2023-02-13T06:48:48;13.63;;;6.45;;
66143;SDS011;52947;50.842;6.084;2023-02-13T06:51:16;11.35;;;6.30;;
66143;SDS011;52947;50.842;6.084;2023-02-13T06:53:44;17.33;;;7.35;;
66143;SDS011;52947;50.842;6.084;2023-02-13T06:56:12;15.77;;;7.78;;
66143;SDS011;52947;50.842;6.084;2023-02-13T06:58:41;14.52;;;7.53;;
66143;SDS011;52947;50.842;6.084;2023-02-13T07:03:37;17.48;;;8.23;;
66143;SDS011;52947;50.842;6.084;2023-02-13T07:06:05;18.05;;;8.32;;
66143;SDS011;52947;50.842;6.084;2023-02-13T07:08:33;18.52;;;8.20;;
66143;SDS011;52947;50.842;6.084;2023-02-13T07:11:01;16.88;;;7.70;;
66143;SDS011;52947;50.842;6.084;2023-02-13T07:13:29;14.20;;;7.55;;
66143;SDS011;52947;50.842;6.084;2023-02-13T07:16:00;16.88;;;7.57;;
66143;SDS011;52947;50.842;6.084;2023-02-13T07:18:28;17.73;;;8.07;;
66143;SDS011;52947;50.842;6.084;2023-02-13T07:20:56;23.55;;;9.05;;
66143;SDS011;52947;50.842;6.084;2023-02-13T07:23:25;21.15;;;8.63;;
66143;SDS011;52947;50.842;6.084;2023-02-13T07:25:53;15.20;;;7.10;;
66143;SDS011;52947;50.842;6.084;2023-02-13T07:28:20;19.95;;;9.60;;
66143;SDS011;52947;50.842;6.084;2023-02-13T07:30:48;15.02;;;8.20;;
66143;SDS011;52947;50.842;6.084;2023-02-13T07:33:23;21.27;;;7.90;;
66143;SDS011;52947;50.842;6.084;2023-02-13T07:35:51;17.65;;;9.48;;
66143;SDS011;52947;50.842;6.084;2023-02-13T07:38:19;19.75;;;9.77;;
66143;SDS011;52947;50.842;6.084;2023-02-13T07:40:47;19.20;;;9.15;;
66143;SDS011;52947;50.842;6.084;2023-02-13T07:43:14;19.92;;;8.43;;
66143;SDS011;52947;50.842;6.084;2023-02-13T07:45:45;20.52;;;8.80;;
66143;SDS011;52947;50.842;6.084;2023-02-13T07:48:13;16.95;;;9.82;;
66143;SDS011;52947;50.842;6.084;2023-02-13T07:50:42;18.83;;;9.05;;
66143;SDS011;52947;50.842;6.084;2023-02-13T07:53:10;14.70;;;7.57;;
66143;SDS011;52947;50.842;6.084;2023-02-13T07:55:38;16.50;;;8.45;;
66143;SDS011;52947;50.842;6.084;2023-02-13T07:58:06;12.35;;;7.05;;
66143;SDS011;52947;50.842;6.084;2023-02-13T08:00:34;13.57;;;7.30;;
66143;SDS011;52947;50.842;6.084;2023-02-13T08:03:02;12.60;;;7.78;;
66143;SDS011;52947;50.842;6.084;2023-02-13T08:05:30;17.10;;;8.07;;
66143;SDS011;52947;50.842;6.084;2023-02-13T08:08:00;17.63;;;9.30;;
66143;SDS011;52947;50.842;6.084;2023-02-13T08:13:13;9.23;;;5.68;;
66143;SDS011;52947;50.842;6.084;2023-02-13T08:15:42;15.77;;;8.43;;
66143;SDS011;52947;50.842;6.084;2023-02-13T08:18:10;11.75;;;7.63;;
66143;SDS011;52947;50.842;6.084;2023-02-13T08:20:38;11.40;;;7.20;;
66143;SDS011;52947;50.842;6.084;2023-02-13T08:23:09;11.32;;;6.78;;
66143;SDS011;52947;50.842;6.084;2023-02-13T08:25:38;11.10;;;7.10;;
66143;SDS011;52947;50.842;6.084;2023-02-13T08:28:06;10.02;;;6.90;;
66143;SDS011;52947;50.842;6.084;2023-02-13T08:30:33;10.93;;;6.90;;
66143;SDS011;52947;50.842;6.084;2023-02-13T08:33:01;10.15;;;6.18;;
66143;SDS011;52947;50.842;6.084;2023-02-13T08:35:29;9.43;;;5.60;;
66143;SDS011;52947;50.842;6.084;2023-02-13T08:38:00;11.68;;;5.60;;
66143;SDS011;52947;50.842;6.084;2023-02-13T08:40:30;9.73;;;5.80;;
66143;SDS011;52947;50.842;6.084;2023-02-13T08:42:58;9.77;;;6.07;;
66143;SDS011;52947;50.842;6.084;2023-02-13T08:45:27;10.32;;;5.90;;
66143;SDS011;52947;50.842;6.084;2023-02-13T08:47:55;8.75;;;6.15;;
66143;SDS011;52947;50.842;6.084;2023-02-13T08:50:24;9.18;;;6.13;;
66143;SDS011;52947;50.842;6.084;2023-02-13T08:55:20;9.20;;;5.78;;
66143;SDS011;52947;50.842;6.084;2023-02-13T08:57:49;11.07;;;7.32;;
66143;SDS011;52947;50.842;6.084;2023-02-13T09:00:18;8.55;;;6.30;;
66143;SDS011;52947;50.842;6.084;2023-02-13T09:05:14;9.25;;;5.78;;
66143;SDS011;52947;50.842;6.084;2023-02-13T09:07:42;7.90;;;5.73;;
66143;SDS011;52947;50.842;6.084;2023-02-13T09:10:10;10.38;;;7.22;;
66143;SDS011;52947;50.842;6.084;2023-02-13T09:12:38;8.67;;;6.37;;
66143;SDS011;52947;50.842;6.084;2023-02-13T09:15:08;9.68;;;6.38;;
66143;SDS011;52947;50.842;6.084;2023-02-13T09:17:36;10.18;;;7.00;;
66143;SDS011;52947;50.842;6.084;2023-02-13T09:20:04;9.20;;;6.85;;
66143;SDS011;52947;50.842;6.084;2023-02-13T09:22:33;10.65;;;6.75;;
66143;SDS011;52947;50.842;6.084;2023-02-13T09:25:01;8.50;;;5.90;;
66143;SDS011;52947;50.842;6.084;2023-02-13T09:27:30;7.82;;;5.88;;
66143;SDS011;52947;50.842;6.084;2023-02-13T09:29:59;8.27;;;5.90;;
66143;SDS011;52947;50.842;6.084;2023-02-13T09:32:28;8.85;;;6.35;;
66143;SDS011;52947;50.842;6.084;2023-02-13T09:34:56;8.85;;;6.70;;
66143;SDS011;52947;50.842;6.084;2023-02-13T09:37:25;8.35;;;6.30;;
66143;SDS011;52947;50.842;6.084;2023-02-13T09:39:53;9.25;;;6.68;;
66143;SDS011;52947;50.842;6.084;2023-02-13T09:42:22;11.93;;;7.28;;
66143;SDS011;52947;50.842;6.084;2023-02-13T09:44:53;8.27;;;5.88;;
66143;SDS011;52947;50.842;6.084;2023-02-13T09:47:26;9.10;;;6.10;;
66143;SDS011;52947;50.842;6.084;2023-02-13T09:50:04;10.38;;;6.55;;
66143;SDS011;52947;50.842;6.084;2023-02-13T09:52:37;11.05;;;5.97;;
66143;SDS011;52947;50.842;6.084;2023-02-13T09:55:12;8.07;;;5.90;;
66143;SDS011;52947;50.842;6.084;2023-02-13T09:57:43;9.05;;;5.72;;
66143;SDS011;52947;50.842;6.084;2023-02-13T10:00:19;7.63;;;5.50;;
66143;SDS011;52947;50.842;6.084;2023-02-13T10:02:55;8.02;;;5.65;;
66143;SDS011;52947;50.842;6.084;2023-02-13T10:05:55;7.93;;;6.00;;
66143;SDS011;52947;50.842;6.084;2023-02-13T10:08:43;9.10;;;5.63;;
66143;SDS011;52947;50.842;6.084;2023-02-13T10:11:41;9.30;;;5.70;;
66143;SDS011;52947;50.842;6.084;2023-02-13T10:14:28;7.97;;;5.53;;
66143;SDS011;52947;50.842;6.084;2023-02-13T10:17:03;8.77;;;5.55;;
66143;SDS011;52947;50.842;6.084;2023-02-13T10:19:39;7.15;;;5.60;;
66143;SDS011;52947;50.842;6.084;2023-02-13T10:22:10;8.85;;;5.85;;
66143;SDS011;52947;50.842;6.084;2023-02-13T10:24:43;7.28;;;5.55;;
66143;SDS011;52947;50.842;6.084;2023-02-13T10:27:18;7.88;;;5.70;;
66143;SDS011;52947;50.842;6.084;2023-02-13T10:29:50;9.13;;;5.88;;
66143;SDS011;52947;50.842;6.084;2023-02-13T10:32:35;7.43;;;5.13;;
66143;SDS011;52947;50.842;6.084;2023-02-13T10:35:20;6.93;;;5.40;;
66143;SDS011;52947;50.842;6.084;2023-02-13T10:37:53;9.95;;;5.90;;
66143;SDS011;52947;50.842;6.084;2023-02-13T10:40:23;9.45;;;6.68;;
66143;SDS011;52947;50.842;6.084;2023-02-13T10:42:59;8.60;;;6.00;;
66143;SDS011;52947;50.842;6.084;2023-02-13T10:45:41;9.23;;;6.22;;
66143;SDS011;52947;50.842;6.084;2023-02-13T10:48:23;8.30;;;6.28;;
66143;SDS011;52947;50.842;6.084;2023-02-13T10:51:05;8.32;;;5.78;;
66143;SDS011;52947;50.842;6.084;2023-02-13T10:53:45;8.63;;;5.65;;
66143;SDS011;52947;50.842;6.084;2023-02-13T10:56:22;10.20;;;5.65;;
66143;SDS011;52947;50.842;6.084;2023-02-13T10:58:56;7.32;;;5.15;;
66143;SDS011;52947;50.842;6.084;2023-02-13T11:01:32;10.43;;;5.55;;
66143;SDS011;52947;50.842;6.084;2023-02-13T11:04:05;9.00;;;5.88;;
66143;SDS011;52947;50.842;6.084;2023-02-13T11:06:39;8.93;;;6.10;;
66143;SDS011;52947;50.842;6.084;2023-02-13T11:09:09;10.38;;;6.00;;
66143;SDS011;52947;50.842;6.084;2023-02-13T11:11:39;11.43;;;6.03;;
66143;SDS011;52947;50.842;6.084;2023-02-13T11:14:18;10.90;;;6.47;;
66143;SDS011;52947;50.842;6.084;2023-02-13T11:16:48;9.68;;;6.20;;
66143;SDS011;52947;50.842;6.084;2023-02-13T11:19:21;9.25;;;6.72;;
66143;SDS011;52947;50.842;6.084;2023-02-13T11:21:55;10.48;;;6.50;;
66143;SDS011;52947;50.842;6.084;2023-02-13T11:24:25;9.07;;;6.40;;
66143;SDS011;52947;50.842;6.084;2023-02-13T11:29:25;8.18;;;6.30;;
66143;SDS011;52947;50.842;6.084;2023-02-13T11:32:03;16.08;;;6.45;;
66143;SDS011;52947;50.842;6.084;2023-02-13T11:34:47;9.20;;;6.85;;
66143;SDS011;52947;50.842;6.084;2023-02-13T11:37:22;9.55;;;6.47;;
66143;SDS011;52947;50.842;6.084;2023-02-13T11:39:53;9.60;;;6.45;;
66143;SDS011;52947;50.842;6.084;2023-02-13T11:42:26;10.38;;;6.68;;
66143;SDS011;52947;50.842;6.084;2023-02-13T11:44:57;10.43;;;6.80;;
66143;SDS011;52947;50.842;6.084;2023-02-13T11:47:32;8.32;;;5.95;;
66143;SDS011;52947;50.842;6.084;2023-02-13T11:50:03;9.88;;;6.57;;
66143;SDS011;52947;50.842;6.084;2023-02-13T11:52:34;9.80;;;6.72;;
66143;SDS011;52947;50.842;6.084;2023-02-13T11:55:03;11.93;;;6.80;;
66143;SDS011;52947;50.842;6.084;2023-02-13T11:57:54;13.18;;;7.45;;
66143;SDS011;52947;50.842;6.084;2023-02-13T12:00:28;11.85;;;7.55;;
66143;SDS011;52947;50.842;6.084;2023-02-13T12:03:22;12.38;;;7.70;;
66143;SDS011;52947;50.842;6.084;2023-02-13T12:05:59;11.93;;;7.68;;
66143;SDS011;52947;50.842;6.084;2023-02-13T12:08:32;14.82;;;8.25;;
66143;SDS011;52947;50.842;6.084;2023-02-13T12:11:01;14.65;;;8.05;;
66143;SDS011;52947;50.842;6.084;2023-02-13T12:13:34;14.60;;;7.85;;
66143;SDS011;52947;50.842;6.084;2023-02-13T12:16:05;13.25;;;8.50;;
66143;SDS011;52947;50.842;6.084;2023-02-13T12:18:41;13.88;;;8.25;;
66143;SDS011;52947;50.842;6.084;2023-02-13T12:21:16;14.20;;;8.27;;
66143;SDS011;52947;50.842;6.084;2023-02-13T12:23:56;13.30;;;7.90;;
66143;SDS011;52947;50.842;6.084;2023-02-13T12:26:36;15.20;;;8.95;;
66143;SDS011;52947;50.842;6.084;2023-02-13T12:29:15;10.90;;;7.82;;
66143;SDS011;52947;50.842;6.084;2023-02-13T12:31:58;13.80;;;7.75;;
66143;SDS011;52947;50.842;6.084;2023-02-13T12:34:43;13.73;;;7.72;;
66143;SDS011;52947;50.842;6.084;2023-02-13T12:37:41;14.88;;;8.93;;
66143;SDS011;52947;50.842;6.084;2023-02-13T12:40:24;15.02;;;7.82;;
66143;SDS011;52947;50.842;6.084;2023-02-13T12:43:16;13.82;;;7.32;;
66143;SDS011;52947;50.842;6.084;2023-02-13T12:46:03;14.45;;;8.55;;
66143;SDS011;52947;50.842;6.084;2023-02-13T12:48:37;13.88;;;7.63;;
66143;SDS011;52947;50.842;6.084;2023-02-13T12:51:16;15.40;;;7.55;;
66143;SDS011;52947;50.842;6.084;2023-02-13T12:53:58;14.52;;;7.35;;
66143;SDS011;52947;50.842;6.084;2023-02-13T12:59:39;12.68;;;6.47;;
66143;SDS011;52947;50.842;6.084;2023-02-13T13:05:24;9.52;;;6.05;;
66143;SDS011;52947;50.842;6.084;2023-02-13T13:08:12;12.20;;;5.97;;
66143;SDS011;52947;50.842;6.084;2023-02-13T13:10:53;10.85;;;6.05;;
66143;SDS011;52947;50.842;6.084;2023-02-13T13:13:44;10.95;;;6.20;;
66143;SDS011;52947;50.842;6.084;2023-02-13T13:16:22;9.55;;;6.60;;
66143;SDS011;52947;50.842;6.084;2023-02-13T13:21:34;9.18;;;5.80;;
66143;SDS011;52947;50.842;6.084;2023-02-13T13:24:13;10.13;;;5.20;;
66143;SDS011;52947;50.842;6.084;2023-02-13T13:26:49;9.73;;;5.47;;
66143;SDS011;52947;50.842;6.084;2023-02-13T13:29:23;12.25;;;5.32;;
66143;SDS011;52947;50.842;6.084;2023-02-13T13:31:58;11.57;;;5.55;;
66143;SDS011;52947;50.842;6.084;2023-02-13T13:34:30;9.80;;;5.00;;
66143;SDS011;52947;50.842;6.084;2023-02-13T13:37:01;12.07;;;4.78;;
66143;SDS011;52947;50.842;6.084;2023-02-13T13:39:40;10.15;;;5.65;;
66143;SDS011;52947;50.842;6.084;2023-02-13T13:42:14;10.07;;;5.00;;
66143;SDS011;52947;50.842;6.084;2023-02-13T13:47:50;8.90;;;5.03;;
66143;SDS011;52947;50.842;6.084;2023-02-13T13:50:27;7.80;;;4.75;;
66143;SDS011;52947;50.842;6.084;2023-02-13T13:53:04;8.65;;;5.13;;
66143;SDS011;52947;50.842;6.084;2023-02-13T13:58:31;11.18;;;5.70;;
66143;SDS011;52947;50.842;6.084;2023-02-13T14:01:14;8.95;;;5.28;;
66143;SDS011;52947;50.842;6.084;2023-02-13T14:03:52;10.05;;;5.18;;
66143;SDS011;52947;50.842;6.084;2023-02-13T14:06:21;10.13;;;4.95;;
66143;SDS011;52947;50.842;6.084;2023-02-13T14:08:52;13.85;;;5.65;;
66143;SDS011;52947;50.842;6.084;2023-02-13T14:11:29;9.18;;;4.63;;
66143;SDS011;52947;50.842;6.084;2023-02-13T14:14:00;8.55;;;4.90;;
66143;SDS011;52947;50.842;6.084;2023-02-13T14:16:35;8.45;;;5.07;;
66143;SDS011;52947;50.842;6.084;2023-02-13T14:19:20;8.80;;;5.25;;
66143;SDS011;52947;50.842;6.084;2023-02-13T14:21:51;8.27;;;5.65;;
66143;SDS011;52947;50.842;6.084;2023-02-13T14:24:20;13.55;;;5.75;;
66143;SDS011;52947;50.842;6.084;2023-02-13T14:26:51;12.00;;;5.72;;
66143;SDS011;52947;50.842;6.084;2023-02-13T14:29:31;8.43;;;5.40;;
66143;SDS011;52947;50.842;6.084;2023-02-13T14:32:14;9.70;;;5.72;;
66143;SDS011;52947;50.842;6.084;2023-02-13T14:34:53;8.65;;;5.60;;
66143;SDS011;52947;50.842;6.084;2023-02-13T14:37:27;10.63;;;5.90;;
66143;SDS011;52947;50.842;6.084;2023-02-13T14:43:20;10.82;;;6.57;;
66143;SDS011;52947;50.842;6.084;2023-02-13T14:45:54;10.63;;;6.50;;
66143;SDS011;52947;50.842;6.084;2023-02-13T14:48:26;11.30;;;7.03;;
66143;SDS011;52947;50.842;6.084;2023-02-13T14:51:03;15.02;;;6.80;;
66143;SDS011;52947;50.842;6.084;2023-02-13T14:53:34;15.02;;;6.55;;
66143;SDS011;52947;50.842;6.084;2023-02-13T14:56:19;11.18;;;6.43;;
66143;SDS011;52947;50.842;6.084;2023-02-13T14:58:50;10.38;;;5.90;;
66143;SDS011;52947;50.842;6.084;2023-02-13T15:01:24;12.60;;;6.43;;
66143;SDS011;52947;50.842;6.084;2023-02-13T15:03:57;12.68;;;6.90;;
66143;SDS011;52947;50.842;6.084;2023-02-13T15:06:34;10.35;;;5.65;;
66143;SDS011;52947;50.842;6.084;2023-02-13T15:09:14;11.75;;;6.13;;
66143;SDS011;52947;50.842;6.084;2023-02-13T15:11:47;8.65;;;5.95;;
66143;SDS011;52947;50.842;6.084;2023-02-13T15:14:16;11.43;;;6.97;;
66143;SDS011;52947;50.842;6.084;2023-02-13T15:16:53;11.80;;;6.80;;
66143;SDS011;52947;50.842;6.084;2023-02-13T15:19:23;11.18;;;6.40;;
66143;SDS011;52947;50.842;6.084;2023-02-13T15:21:55;15.23;;;7.45;;
66143;SDS011;52947;50.842;6.084;2023-02-13T15:24:25;12.13;;;7.13;;
66143;SDS011;52947;50.842;6.084;2023-02-13T15:26:58;14.05;;;7.03;;
66143;SDS011;52947;50.842;6.084;2023-02-13T15:29:28;11.32;;;6.70;;
66143;SDS011;52947;50.842;6.084;2023-02-13T15:32:17;11.05;;;6.65;;
66143;SDS011;52947;50.842;6.084;2023-02-13T15:34:46;14.10;;;6.53;;
66143;SDS011;52947;50.842;6.084;2023-02-13T15:37:21;12.85;;;6.65;;
66143;SDS011;52947;50.842;6.084;2023-02-13T15:39:50;18.77;;;6.20;;
66143;SDS011;52947;50.842;6.084;2023-02-13T15:42:18;9.70;;;6.55;;
66143;SDS011;52947;50.842;6.084;2023-02-13T15:44:46;9.52;;;6.45;;
66143;SDS011;52947;50.842;6.084;2023-02-13T15:47:17;13.18;;;6.82;;
66143;SDS011;52947;50.842;6.084;2023-02-13T15:49:52;14.00;;;6.95;;
66143;SDS011;52947;50.842;6.084;2023-02-13T15:52:24;11.27;;;7.05;;